Bville, New York
Current Conditions -  °F | °C
As of 6:54 AM on Friday 24 Oct 2014 (Local Time) from KFZY Reporting Station
Overcast Overcast  
Wind Chill: 48°   Ceiling: 9500
Heat Index: 48°   Visibility: 10mi
Dew Point: 45°   Wind: 0mph
Humidity: 89%   Direction: NA
Pressure: 29.94"   Gusts: NA
Location:  43.1825°N, 76.3664°W
Report Text: KFZY 241054Z AUTO 00000KT 10SM FEW019 OVC095 09/07 A2994 RMK AO2 SLP139 T00890072
Loading
Personal Weather Stations






























Interactive Weather Map New forecast layout! Learn more

10-Day Weather Forecast

Advertisements
Track Severe Weather on mobile